WARM SPRINGS (USACE) (WRS)

Elevation: 440' · RUSSIAN R basin · Operator: US Army Corps of Engineers

Provisional data, subject to change.
Query executed Sunday at 6:13:56   clock

Select a sensor type for a plot of data.
Note: Reservoir Flows are daily averages.

Earlier

Date RES ELE    STORAGE    RES CHG    TOC STO    ABV TOC    OUTFLOW    INFLOW    PPT INC    TEMP MN    TEMP MX    EVP PAN   
 FEET   AF   AF   AF   AF   CFS   CFS   INCHES   DEG F   DEG F   INCHES  
06/06/2015 435.34 205883 -211 245000 -39117 96 6 0.00 11 27 0.23
06/07/2015 435.25 205672 -211 245000 -39328 96 8 0.00 12 34 0.25
06/08/2015 435.18 205507 -165 245000 -39493 96 32 0.02 12 42 0.27
06/09/2015 435.09 205297 -210 245000 -39703 99 9 0.00 13 35 0.23
06/10/2015 434.98 205039 -258 245000 -39961 101 -14 0.00 16 32 0.21
06/11/2015 434.88 204805 -234 245000 -40195 101 2 0.00 12 38 0.26
06/12/2015 434.79 204595 -210 245000 -40405 101 14 0.00 11 38 0.27
06/13/2015 434.69 204361 -234 245000 -40639 101 1 0.00 10 33 0.26
06/14/2015 434.59 204128 -233 245000 -40872 101 0 0.00 11 27 0.23
06/15/2015 434.48 203871 -257 245000 -41129 101 -10 0.00 10 31 0.25
06/16/2015 434.38 203638 -233 245000 -41362 101 1 0.00 8 33 0.25
06/17/2015 434.28 203405 -233 245000 -41595 101 2 0.00 8 35 0.26
06/18/2015 434.17 203149 -256 245000 -41851 101 -8 0.00 7 37 0.28
06/19/2015 434.06 202894 -255 245000 -42106 101 -9 0.00 7 39 0.27
06/20/2015 433.96 202661 -233 245000 -42339 101 1 0.00 9 35 0.24
06/21/2015 433.86 202429 -232 245000 -42571 101 0 0.00 11 28 0.22
06/22/2015 433.75 202174 -255 245000 -42826 102 -10 0.00 8 30 0.24
06/23/2015 433.65 201942 -232 245000 -43058 101 3 0.00 8 37 0.27
06/24/2015 433.55 201711 -231 245000 -43289 101 3 0.00 10 36 0.26
06/25/2015 433.43 201433 -278 245000 -43567 101 -20 0.01 13 39 0.27
06/26/2015 433.33 201202 -231 245000 -43798 100 3 0.00 13 37 0.27
06/27/2015 433.23 200971 -231 245000 -44029 101 0 0.00 12 31 0.23
06/28/2015 433.13 200740 -231 245000 -44260 101 2 0.00 15 30 0.26
06/29/2015 433.01 200464 -276 245000 -44536 133 13 0.00 13 36 0.28
06/30/2015 432.85 200095 -369 245000 -44905 143 -22 0.03 12 43 0.28
07/01/2015 432.72 199796 -299 245000 -45204 117 -16 0.00 14 36 0.24
07/02/2015 432.62 199566 -230 245000 -45434 100 0 0.00 15 33 0.22
07/03/2015 432.51 199313 -253 245000 -45687 100 -11 0.00 15 34 0.22
07/04/2015 432.40 199061 -252 245000 -45939 100 -8 0.00 14 34 0.26
07/05/2015 -- -- -- -- -- -- -- -- -- -- --

Later | Latest

Warning! This data is preliminary and subject to revision.

Show WRS Map | Plot WRS Data | 1 Month WRS Data | Real-Time WRS Data | WRS Info